sensor_id;sensor_type;location;lat;lon;timestamp;pressure;altitude;pressure_sealevel;temperature
68127;BMP180;54931;52.098;21.006;2023-03-03T00:02:11;100601.40;;;-3.30
68127;BMP180;54931;52.098;21.006;2023-03-03T00:04:39;100601.20;;;-3.24
68127;BMP180;54931;52.098;21.006;2023-03-03T00:07:07;100600.20;;;-3.20
68127;BMP180;54931;52.098;21.006;2023-03-03T00:09:37;100601.40;;;-3.10
68127;BMP180;54931;52.098;21.006;2023-03-03T00:12:28;100593.40;;;-3.00
68127;BMP180;54931;52.098;21.006;2023-03-03T00:14:56;100595.40;;;-3.00
68127;BMP180;54931;52.098;21.006;2023-03-03T00:17:28;100591.40;;;-2.96
68127;BMP180;54931;52.098;21.006;2023-03-03T00:19:56;100594.00;;;-2.90
68127;BMP180;54931;52.098;21.006;2023-03-03T00:22:34;100590.80;;;-2.90
68127;BMP180;54931;52.098;21.006;2023-03-03T00:27:46;100579.00;;;-2.80
68127;BMP180;54931;52.098;21.006;2023-03-03T00:30:27;100583.20;;;-2.80
68127;BMP180;54931;52.098;21.006;2023-03-03T00:32:55;100576.00;;;-2.80
68127;BMP180;54931;52.098;21.006;2023-03-03T00:35:31;100570.40;;;-2.80
68127;BMP180;54931;52.098;21.006;2023-03-03T00:38:17;100563.60;;;-2.80
68127;BMP180;54931;52.098;21.006;2023-03-03T00:40:47;100566.00;;;-2.80
68127;BMP180;54931;52.098;21.006;2023-03-03T00:43:22;100567.80;;;-2.80
68127;BMP180;54931;52.098;21.006;2023-03-03T00:45:53;100568.20;;;-2.80
68127;BMP180;54931;52.098;21.006;2023-03-03T00:48:40;100567.40;;;-2.80
68127;BMP180;54931;52.098;21.006;2023-03-03T00:51:30;100559.00;;;-2.80
68127;BMP180;54931;52.098;21.006;2023-03-03T00:53:58;100550.80;;;-2.90
68127;BMP180;54931;52.098;21.006;2023-03-03T00:56:26;100549.00;;;-2.90
68127;BMP180;54931;52.098;21.006;2023-03-03T00:58:54;100550.40;;;-2.90
68127;BMP180;54931;52.098;21.006;2023-03-03T01:01:22;100545.20;;;-2.90
68127;BMP180;54931;52.098;21.006;2023-03-03T01:03:52;100542.60;;;-2.90
68127;BMP180;54931;52.098;21.006;2023-03-03T01:06:19;100543.60;;;-2.90
68127;BMP180;54931;52.098;21.006;2023-03-03T01:08:47;100532.60;;;-2.90
68127;BMP180;54931;52.098;21.006;2023-03-03T01:11:21;100529.00;;;-2.90
68127;BMP180;54931;52.098;21.006;2023-03-03T01:13:51;100521.00;;;-2.90
68127;BMP180;54931;52.098;21.006;2023-03-03T01:16:20;100516.80;;;-2.90
68127;BMP180;54931;52.098;21.006;2023-03-03T01:18:48;100522.20;;;-2.90
68127;BMP180;54931;52.098;21.006;2023-03-03T01:21:15;100513.60;;;-2.90
68127;BMP180;54931;52.098;21.006;2023-03-03T01:23:44;100513.60;;;-2.90
68127;BMP180;54931;52.098;21.006;2023-03-03T01:26:12;100514.20;;;-2.90
68127;BMP180;54931;52.098;21.006;2023-03-03T01:28:39;100510.80;;;-2.90
68127;BMP180;54931;52.098;21.006;2023-03-03T01:31:07;100503.00;;;-2.90
68127;BMP180;54931;52.098;21.006;2023-03-03T01:33:37;100497.20;;;-2.90
68127;BMP180;54931;52.098;21.006;2023-03-03T01:36:05;100496.40;;;-2.98
68127;BMP180;54931;52.098;21.006;2023-03-03T01:38:38;100495.80;;;-3.00
68127;BMP180;54931;52.098;21.006;2023-03-03T01:41:05;100491.40;;;-3.00
68127;BMP180;54931;52.098;21.006;2023-03-03T01:43:33;100491.60;;;-3.10
68127;BMP180;54931;52.098;21.006;2023-03-03T01:48:35;100480.00;;;-3.20
68127;BMP180;54931;52.098;21.006;2023-03-03T01:51:22;100478.20;;;-3.20
68127;BMP180;54931;52.098;21.006;2023-03-03T01:53:56;100481.20;;;-3.30
68127;BMP180;54931;52.098;21.006;2023-03-03T01:56:26;100484.40;;;-3.30
68127;BMP180;54931;52.098;21.006;2023-03-03T01:59:17;100487.60;;;-3.38
68127;BMP180;54931;52.098;21.006;2023-03-03T02:01:47;100479.40;;;-3.40
68127;BMP180;54931;52.098;21.006;2023-03-03T02:04:17;100479.60;;;-3.40
68127;BMP180;54931;52.098;21.006;2023-03-03T02:06:56;100477.40;;;-3.40
68127;BMP180;54931;52.098;21.006;2023-03-03T02:12:56;100473.00;;;-3.40
68127;BMP180;54931;52.098;21.006;2023-03-03T02:15:31;100472.40;;;-3.40
68127;BMP180;54931;52.098;21.006;2023-03-03T02:18:06;100472.60;;;-3.50
68127;BMP180;54931;52.098;21.006;2023-03-03T02:20:57;100469.00;;;-3.50
68127;BMP180;54931;52.098;21.006;2023-03-03T02:23:55;100473.80;;;-3.50
68127;BMP180;54931;52.098;21.006;2023-03-03T02:26:30;100476.00;;;-3.50
68127;BMP180;54931;52.098;21.006;2023-03-03T02:28:59;100474.20;;;-3.50
68127;BMP180;54931;52.098;21.006;2023-03-03T02:31:29;100470.60;;;-3.50
68127;BMP180;54931;52.098;21.006;2023-03-03T02:33:58;100465.80;;;-3.44
68127;BMP180;54931;52.098;21.006;2023-03-03T02:36:34;100471.00;;;-3.40
68127;BMP180;54931;52.098;21.006;2023-03-03T02:39:21;100474.20;;;-3.40
68127;BMP180;54931;52.098;21.006;2023-03-03T02:41:59;100472.20;;;-3.30
68127;BMP180;54931;52.098;21.006;2023-03-03T02:44:30;100469.60;;;-3.30
68127;BMP180;54931;52.098;21.006;2023-03-03T02:46:59;100470.80;;;-3.28
68127;BMP180;54931;52.098;21.006;2023-03-03T02:49:34;100468.80;;;-3.20
68127;BMP180;54931;52.098;21.006;2023-03-03T02:52:06;100468.80;;;-3.20
68127;BMP180;54931;52.098;21.006;2023-03-03T02:54:37;100467.60;;;-3.10
68127;BMP180;54931;52.098;21.006;2023-03-03T02:57:05;100469.40;;;-3.10
68127;BMP180;54931;52.098;21.006;2023-03-03T02:59:35;100462.00;;;-3.10
68127;BMP180;54931;52.098;21.006;2023-03-03T03:02:03;100468.80;;;-3.10
68127;BMP180;54931;52.098;21.006;2023-03-03T03:04:30;100469.60;;;-3.10
68127;BMP180;54931;52.098;21.006;2023-03-03T03:06:58;100463.40;;;-3.10
68127;BMP180;54931;52.098;21.006;2023-03-03T03:09:26;100462.60;;;-3.10
68127;BMP180;54931;52.098;21.006;2023-03-03T03:11:55;100463.40;;;-3.10
68127;BMP180;54931;52.098;21.006;2023-03-03T03:14:22;100464.80;;;-3.10
68127;BMP180;54931;52.098;21.006;2023-03-03T03:16:50;100458.80;;;-3.10
68127;BMP180;54931;52.098;21.006;2023-03-03T03:19:18;100458.20;;;-3.02
68127;BMP180;54931;52.098;21.006;2023-03-03T03:21:46;100450.80;;;-3.04
68127;BMP180;54931;52.098;21.006;2023-03-03T03:24:14;100452.00;;;-3.02
68127;BMP180;54931;52.098;21.006;2023-03-03T03:26:42;100452.60;;;-3.02
68127;BMP180;54931;52.098;21.006;2023-03-03T03:29:10;100452.00;;;-3.00
68127;BMP180;54931;52.098;21.006;2023-03-03T03:31:38;100451.80;;;-3.00
68127;BMP180;54931;52.098;21.006;2023-03-03T03:34:06;100451.80;;;-3.00
68127;BMP180;54931;52.098;21.006;2023-03-03T03:36:34;100449.20;;;-2.92
68127;BMP180;54931;52.098;21.006;2023-03-03T03:39:02;100454.20;;;-2.90
68127;BMP180;54931;52.098;21.006;2023-03-03T03:41:32;100453.60;;;-2.90
68127;BMP180;54931;52.098;21.006;2023-03-03T03:44:00;100457.80;;;-2.90
68127;BMP180;54931;52.098;21.006;2023-03-03T03:46:28;100454.80;;;-2.90
68127;BMP180;54931;52.098;21.006;2023-03-03T03:48:57;100451.00;;;-2.90
68127;BMP180;54931;52.098;21.006;2023-03-03T03:51:24;100446.20;;;-2.90
68127;BMP180;54931;52.098;21.006;2023-03-03T03:53:52;100450.40;;;-2.90
68127;BMP180;54931;52.098;21.006;2023-03-03T03:56:20;100453.80;;;-3.00
68127;BMP180;54931;52.098;21.006;2023-03-03T03:58:47;100455.00;;;-3.00
68127;BMP180;54931;52.098;21.006;2023-03-03T04:01:16;100457.80;;;-3.00
68127;BMP180;54931;52.098;21.006;2023-03-03T04:03:43;100449.00;;;-3.00
68127;BMP180;54931;52.098;21.006;2023-03-03T04:06:11;100445.00;;;-3.00
68127;BMP180;54931;52.098;21.006;2023-03-03T04:08:39;100439.00;;;-3.00
68127;BMP180;54931;52.098;21.006;2023-03-03T04:11:07;100437.20;;;-3.00
68127;BMP180;54931;52.098;21.006;2023-03-03T04:13:35;100426.00;;;-3.00
68127;BMP180;54931;52.098;21.006;2023-03-03T04:16:03;100427.60;;;-3.00
68127;BMP180;54931;52.098;21.006;2023-03-03T04:18:31;100425.20;;;-3.00
68127;BMP180;54931;52.098;21.006;2023-03-03T04:20:59;100424.00;;;-3.00
68127;BMP180;54931;52.098;21.006;2023-03-03T04:23:26;100428.00;;;-3.00
68127;BMP180;54931;52.098;21.006;2023-03-03T04:25:54;100426.00;;;-3.00
68127;BMP180;54931;52.098;21.006;2023-03-03T04:28:22;100415.80;;;-3.00
68127;BMP180;54931;52.098;21.006;2023-03-03T04:30:51;100411.60;;;-3.06
68127;BMP180;54931;52.098;21.006;2023-03-03T04:33:19;100414.60;;;-3.10
68127;BMP180;54931;52.098;21.006;2023-03-03T04:35:47;100413.80;;;-3.10
68127;BMP180;54931;52.098;21.006;2023-03-03T04:38:16;100414.40;;;-3.10
68127;BMP180;54931;52.098;21.006;2023-03-03T04:40:44;100404.80;;;-3.16
68127;BMP180;54931;52.098;21.006;2023-03-03T04:43:13;100409.20;;;-3.10
68127;BMP180;54931;52.098;21.006;2023-03-03T04:45:41;100400.80;;;-3.10
68127;BMP180;54931;52.098;21.006;2023-03-03T04:48:10;100403.40;;;-3.10
68127;BMP180;54931;52.098;21.006;2023-03-03T04:50:37;100401.00;;;-3.10
68127;BMP180;54931;52.098;21.006;2023-03-03T04:53:05;100396.40;;;-3.10
68127;BMP180;54931;52.098;21.006;2023-03-03T04:55:36;100394.60;;;-3.10
68127;BMP180;54931;52.098;21.006;2023-03-03T04:58:04;100399.40;;;-3.20
68127;BMP180;54931;52.098;21.006;2023-03-03T05:00:32;100395.60;;;-3.20
68127;BMP180;54931;52.098;21.006;2023-03-03T05:03:01;100394.40;;;-3.30
68127;BMP180;54931;52.098;21.006;2023-03-03T05:05:29;100397.60;;;-3.30
68127;BMP180;54931;52.098;21.006;2023-03-03T05:07:57;100400.60;;;-3.30
68127;BMP180;54931;52.098;21.006;2023-03-03T05:10:24;100394.40;;;-3.30
68127;BMP180;54931;52.098;21.006;2023-03-03T05:12:52;100390.80;;;-3.40
68127;BMP180;54931;52.098;21.006;2023-03-03T05:15:20;100385.20;;;-3.40
68127;BMP180;54931;52.098;21.006;2023-03-03T05:17:50;100381.60;;;-3.50
68127;BMP180;54931;52.098;21.006;2023-03-03T05:20:20;100388.20;;;-3.50
68127;BMP180;54931;52.098;21.006;2023-03-03T05:22:48;100387.80;;;-3.60
68127;BMP180;54931;52.098;21.006;2023-03-03T05:25:16;100383.80;;;-3.60
68127;BMP180;54931;52.098;21.006;2023-03-03T05:27:45;100387.20;;;-3.60
68127;BMP180;54931;52.098;21.006;2023-03-03T05:30:13;100394.00;;;-3.66
68127;BMP180;54931;52.098;21.006;2023-03-03T05:32:41;100385.40;;;-3.70
68127;BMP180;54931;52.098;21.006;2023-03-03T05:35:09;100398.00;;;-3.70
68127;BMP180;54931;52.098;21.006;2023-03-03T05:37:37;100392.00;;;-3.70
68127;BMP180;54931;52.098;21.006;2023-03-03T05:40:10;100389.60;;;-3.70
68127;BMP180;54931;52.098;21.006;2023-03-03T05:42:38;100390.20;;;-3.60
68127;BMP180;54931;52.098;21.006;2023-03-03T05:45:06;100391.20;;;-3.60
68127;BMP180;54931;52.098;21.006;2023-03-03T05:47:34;100389.40;;;-3.56
68127;BMP180;54931;52.098;21.006;2023-03-03T05:50:04;100387.20;;;-3.50
68127;BMP180;54931;52.098;21.006;2023-03-03T05:52:32;100381.80;;;-3.48
68127;BMP180;54931;52.098;21.006;2023-03-03T05:54:59;100392.80;;;-3.40
68127;BMP180;54931;52.098;21.006;2023-03-03T05:57:27;100398.00;;;-3.30
68127;BMP180;54931;52.098;21.006;2023-03-03T05:59:55;100396.60;;;-3.20
68127;BMP180;54931;52.098;21.006;2023-03-03T06:02:22;100397.40;;;-3.08
68127;BMP180;54931;52.098;21.006;2023-03-03T06:04:52;100400.60;;;-2.90
68127;BMP180;54931;52.098;21.006;2023-03-03T06:07:19;100393.00;;;-2.80
68127;BMP180;54931;52.098;21.006;2023-03-03T06:09:47;100397.80;;;-2.80
68127;BMP180;54931;52.098;21.006;2023-03-03T06:12:15;100393.60;;;-2.70
68127;BMP180;54931;52.098;21.006;2023-03-03T06:14:43;100392.20;;;-2.60
68127;BMP180;54931;52.098;21.006;2023-03-03T06:17:11;100386.60;;;-2.60
68127;BMP180;54931;52.098;21.006;2023-03-03T06:19:39;100383.40;;;-2.50
68127;BMP180;54931;52.098;21.006;2023-03-03T06:22:08;100393.20;;;-2.50
68127;BMP180;54931;52.098;21.006;2023-03-03T06:24:36;100380.80;;;-2.50
68127;BMP180;54931;52.098;21.006;2023-03-03T06:27:03;100383.40;;;-2.48
68127;BMP180;54931;52.098;21.006;2023-03-03T06:29:31;100390.00;;;-2.40
68127;BMP180;54931;52.098;21.006;2023-03-03T06:31:59;100394.60;;;-2.36
68127;BMP180;54931;52.098;21.006;2023-03-03T06:34:27;100394.00;;;-2.30
68127;BMP180;54931;52.098;21.006;2023-03-03T06:36:54;100392.60;;;-2.24
68127;BMP180;54931;52.098;21.006;2023-03-03T06:39:23;100401.20;;;-2.20
68127;BMP180;54931;52.098;21.006;2023-03-03T06:41:51;100402.80;;;-2.10
68127;BMP180;54931;52.098;21.006;2023-03-03T06:44:19;100404.60;;;-2.10
68127;BMP180;54931;52.098;21.006;2023-03-03T06:46:47;100399.60;;;-2.00
68127;BMP180;54931;52.098;21.006;2023-03-03T06:49:15;100396.60;;;-2.00
68127;BMP180;54931;52.098;21.006;2023-03-03T06:51:43;100400.60;;;-2.00
68127;BMP180;54931;52.098;21.006;2023-03-03T06:54:17;100401.60;;;-2.00
68127;BMP180;54931;52.098;21.006;2023-03-03T06:56:46;100405.00;;;-2.00
68127;BMP180;54931;52.098;21.006;2023-03-03T06:59:19;100410.60;;;-2.02
68127;BMP180;54931;52.098;21.006;2023-03-03T07:01:50;100400.20;;;-2.10
68127;BMP180;54931;52.098;21.006;2023-03-03T07:06:46;100404.00;;;-2.20
68127;BMP180;54931;52.098;21.006;2023-03-03T07:09:23;100404.80;;;-2.20
68127;BMP180;54931;52.098;21.006;2023-03-03T07:12:01;100406.60;;;-2.20
68127;BMP180;54931;52.098;21.006;2023-03-03T07:14:30;100400.00;;;-2.24
68127;BMP180;54931;52.098;21.006;2023-03-03T07:17:04;100409.00;;;-2.20
68127;BMP180;54931;52.098;21.006;2023-03-03T07:19:35;100403.20;;;-2.20
68127;BMP180;54931;52.098;21.006;2023-03-03T07:22:24;100395.40;;;-2.10
68127;BMP180;54931;52.098;21.006;2023-03-03T07:24:58;100388.40;;;-2.00
68127;BMP180;54931;52.098;21.006;2023-03-03T07:27:30;100387.60;;;-2.00
68127;BMP180;54931;52.098;21.006;2023-03-03T07:30:27;100393.80;;;-1.90
68127;BMP180;54931;52.098;21.006;2023-03-03T07:32:57;100390.60;;;-1.80
68127;BMP180;54931;52.098;21.006;2023-03-03T07:35:42;100395.40;;;-1.70
68127;BMP180;54931;52.098;21.006;2023-03-03T07:38:24;100390.20;;;-1.70
68127;BMP180;54931;52.098;21.006;2023-03-03T07:40:56;100391.60;;;-1.70
68127;BMP180;54931;52.098;21.006;2023-03-03T07:46:20;100390.80;;;-1.80
68127;BMP180;54931;52.098;21.006;2023-03-03T07:48:51;100391.60;;;-1.80
68127;BMP180;54931;52.098;21.006;2023-03-03T07:51:36;100396.80;;;-1.76
68127;BMP180;54931;52.098;21.006;2023-03-03T07:54:34;100405.80;;;-1.68
68127;BMP180;54931;52.098;21.006;2023-03-03T07:57:25;100415.00;;;-1.60
68127;BMP180;54931;52.098;21.006;2023-03-03T08:05:39;100420.20;;;-1.32
68127;BMP180;54931;52.098;21.006;2023-03-03T08:10:54;100420.80;;;-1.26
68127;BMP180;54931;52.098;21.006;2023-03-03T08:16:28;100422.00;;;-1.20
68127;BMP180;54931;52.098;21.006;2023-03-03T08:19:03;100419.80;;;-1.10
68127;BMP180;54931;52.098;21.006;2023-03-03T08:21:34;100410.80;;;-1.10
68127;BMP180;54931;52.098;21.006;2023-03-03T08:24:03;100423.20;;;-1.00
68127;BMP180;54931;52.098;21.006;2023-03-03T08:26:31;100419.00;;;-1.00
68127;BMP180;54931;52.098;21.006;2023-03-03T08:28:58;100425.20;;;-0.90
68127;BMP180;54931;52.098;21.006;2023-03-03T08:31:28;100426.00;;;-0.90
68127;BMP180;54931;52.098;21.006;2023-03-03T08:33:56;100431.20;;;-0.80
68127;BMP180;54931;52.098;21.006;2023-03-03T08:36:25;100433.00;;;-0.80
68127;BMP180;54931;52.098;21.006;2023-03-03T08:38:53;100435.40;;;-0.70
68127;BMP180;54931;52.098;21.006;2023-03-03T08:41:22;100430.20;;;-0.70
68127;BMP180;54931;52.098;21.006;2023-03-03T08:43:50;100429.80;;;-0.60
68127;BMP180;54931;52.098;21.006;2023-03-03T08:46:18;100431.00;;;-0.54
68127;BMP180;54931;52.098;21.006;2023-03-03T08:48:46;100444.40;;;-0.50
68127;BMP180;54931;52.098;21.006;2023-03-03T08:51:14;100445.40;;;-0.40
68127;BMP180;54931;52.098;21.006;2023-03-03T08:53:42;100437.40;;;-0.40
68127;BMP180;54931;52.098;21.006;2023-03-03T08:56:09;100433.40;;;-0.34
68127;BMP180;54931;52.098;21.006;2023-03-03T08:58:37;100429.00;;;-0.30
68127;BMP180;54931;52.098;21.006;2023-03-03T09:01:07;100427.20;;;-0.20
68127;BMP180;54931;52.098;21.006;2023-03-03T09:03:35;100426.80;;;-0.14
68127;BMP180;54931;52.098;21.006;2023-03-03T09:06:03;100428.60;;;-0.14
68127;BMP180;54931;52.098;21.006;2023-03-03T09:08:31;100444.60;;;-0.08
68127;BMP180;54931;52.098;21.006;2023-03-03T09:10:59;100454.20;;;0.00
68127;BMP180;54931;52.098;21.006;2023-03-03T09:13:29;100443.00;;;0.00
68127;BMP180;54931;52.098;21.006;2023-03-03T09:15:58;100453.20;;;0.00
68127;BMP180;54931;52.098;21.006;2023-03-03T09:18:37;100453.80;;;-0.10
68127;BMP180;54931;52.098;21.006;2023-03-03T09:21:30;100464.80;;;-0.20
68127;BMP180;54931;52.098;21.006;2023-03-03T09:24:01;100465.60;;;-0.20
68127;BMP180;54931;52.098;21.006;2023-03-03T09:26:42;100461.20;;;-0.20
68127;BMP180;54931;52.098;21.006;2023-03-03T09:32:01;100449.80;;;-0.30
68127;BMP180;54931;52.098;21.006;2023-03-03T09:34:40;100436.20;;;-0.30
68127;BMP180;54931;52.098;21.006;2023-03-03T09:37:28;100430.20;;;-0.30
68127;BMP180;54931;52.098;21.006;2023-03-03T09:39:58;100427.00;;;-0.30
68127;BMP180;54931;52.098;21.006;2023-03-03T09:45:48;100410.40;;;-0.30
68127;BMP180;54931;52.098;21.006;2023-03-03T09:49:07;100406.40;;;-0.30
68127;BMP180;54931;52.098;21.006;2023-03-03T10:00:45;100411.80;;;-0.20
68127;BMP180;54931;52.098;21.006;2023-03-03T10:10:24;100399.60;;;-0.20
68127;BMP180;54931;52.098;21.006;2023-03-03T10:29:36;100389.20;;;-0.30
68127;BMP180;54931;52.098;21.006;2023-03-03T10:32:31;100393.80;;;-0.30
68127;BMP180;54931;52.098;21.006;2023-03-03T10:35:44;100387.40;;;-0.30
68127;BMP180;54931;52.098;21.006;2023-03-03T10:53:12;100408.80;;;-0.30
68127;BMP180;54931;52.098;21.006;2023-03-03T11:02:20;100410.20;;;-0.32
68127;BMP180;54931;52.098;21.006;2023-03-03T11:06:21;100414.00;;;-0.30
68127;BMP180;54931;52.098;21.006;2023-03-03T11:27:56;100419.80;;;-0.50
68127;BMP180;54931;52.098;21.006;2023-03-03T11:30:58;100423.60;;;-0.50
68127;BMP180;54931;52.098;21.006;2023-03-03T11:37:23;100416.80;;;-0.50
68127;BMP180;54931;52.098;21.006;2023-03-03T11:40:05;100405.20;;;-0.50
68127;BMP180;54931;52.098;21.006;2023-03-03T11:45:18;100402.40;;;-0.50
68127;BMP180;54931;52.098;21.006;2023-03-03T11:48:18;100393.00;;;-0.60
68127;BMP180;54931;52.098;21.006;2023-03-03T11:54:00;100393.20;;;-0.70
68127;BMP180;54931;52.098;21.006;2023-03-03T11:56:47;100382.80;;;-0.70
68127;BMP180;54931;52.098;21.006;2023-03-03T11:59:47;100387.20;;;-0.70
68127;BMP180;54931;52.098;21.006;2023-03-03T12:11:38;100394.60;;;-0.80
68127;BMP180;54931;52.098;21.006;2023-03-03T12:17:35;100396.40;;;-0.80
68127;BMP180;54931;52.098;21.006;2023-03-03T12:20:33;100393.20;;;-0.80
68127;BMP180;54931;52.098;21.006;2023-03-03T12:26:08;100395.40;;;-0.80
68127;BMP180;54931;52.098;21.006;2023-03-03T12:29:24;100392.20;;;-0.80
68127;BMP180;54931;52.098;21.006;2023-03-03T12:35:02;100388.00;;;-0.80
68127;BMP180;54931;52.098;21.006;2023-03-03T12:40:49;100388.20;;;-0.80
68127;BMP180;54931;52.098;21.006;2023-03-03T12:46:23;100389.20;;;-0.80
68127;BMP180;54931;52.098;21.006;2023-03-03T12:48:52;100388.60;;;-0.80
68127;BMP180;54931;52.098;21.006;2023-03-03T12:54:27;100391.80;;;-0.72
68127;BMP180;54931;52.098;21.006;2023-03-03T12:58:22;100389.20;;;-0.80
68127;BMP180;54931;52.098;21.006;2023-03-03T13:03:44;100388.60;;;-0.80
68127;BMP180;54931;52.098;21.006;2023-03-03T13:06:38;100390.40;;;-0.80
68127;BMP180;54931;52.098;21.006;2023-03-03T13:09:28;100392.40;;;-0.90
68127;BMP180;54931;52.098;21.006;2023-03-03T13:18:13;100385.80;;;-1.02
68127;BMP180;54931;52.098;21.006;2023-03-03T13:23:47;100392.00;;;-1.02
68127;BMP180;54931;52.098;21.006;2023-03-03T13:29:26;100389.20;;;-1.02
68127;BMP180;54931;52.098;21.006;2023-03-03T13:32:21;100390.20;;;-1.00
68127;BMP180;54931;52.098;21.006;2023-03-03T13:37:41;100383.60;;;-1.08
68127;BMP180;54931;52.098;21.006;2023-03-03T13:40:44;100386.60;;;-1.00
68127;BMP180;54931;52.098;21.006;2023-03-03T13:43:50;100384.20;;;-1.04
68127;BMP180;54931;52.098;21.006;2023-03-03T13:46:38;100373.20;;;-1.10
68127;BMP180;54931;52.098;21.006;2023-03-03T13:49:39;100378.00;;;-1.10
68127;BMP180;54931;52.098;21.006;2023-03-03T13:52:22;100374.40;;;-1.10
68127;BMP180;54931;52.098;21.006;2023-03-03T13:57:59;100367.60;;;-1.10
68127;BMP180;54931;52.098;21.006;2023-03-03T14:06:15;100366.00;;;-1.20
68127;BMP180;54931;52.098;21.006;2023-03-03T14:09:08;100362.00;;;-1.20
68127;BMP180;54931;52.098;21.006;2023-03-03T14:12:18;100356.00;;;-1.20
68127;BMP180;54931;52.098;21.006;2023-03-03T14:17:54;100361.20;;;-1.20
68127;BMP180;54931;52.098;21.006;2023-03-03T14:20:54;100356.80;;;-1.20
68127;BMP180;54931;52.098;21.006;2023-03-03T14:23:46;100356.20;;;-1.20
68127;BMP180;54931;52.098;21.006;2023-03-03T14:26:14;100359.60;;;-1.20
68127;BMP180;54931;52.098;21.006;2023-03-03T14:28:46;100356.60;;;-1.20
68127;BMP180;54931;52.098;21.006;2023-03-03T14:31:40;100354.00;;;-1.20
68127;BMP180;54931;52.098;21.006;2023-03-03T14:36:57;100336.80;;;-1.20
68127;BMP180;54931;52.098;21.006;2023-03-03T14:39:35;100334.00;;;-1.20
68127;BMP180;54931;52.098;21.006;2023-03-03T14:42:45;100356.20;;;-1.20
68127;BMP180;54931;52.098;21.006;2023-03-03T14:45:39;100352.00;;;-1.20
68127;BMP180;54931;52.098;21.006;2023-03-03T14:48:21;100356.40;;;-1.20
68127;BMP180;54931;52.098;21.006;2023-03-03T14:53:36;100354.40;;;-1.20
68127;BMP180;54931;52.098;21.006;2023-03-03T14:56:25;100356.40;;;-1.20
68127;BMP180;54931;52.098;21.006;2023-03-03T14:59:22;100360.20;;;-1.20
68127;BMP180;54931;52.098;21.006;2023-03-03T15:04:45;100356.20;;;-1.20
68127;BMP180;54931;52.098;21.006;2023-03-03T15:07:35;100352.40;;;-1.20
68127;BMP180;54931;52.098;21.006;2023-03-03T15:10:06;100352.00;;;-1.20
68127;BMP180;54931;52.098;21.006;2023-03-03T15:12:37;100356.00;;;-1.20
68127;BMP180;54931;52.098;21.006;2023-03-03T15:15:21;100358.80;;;-1.20
68127;BMP180;54931;52.098;21.006;2023-03-03T15:20:47;100353.20;;;-1.28
68127;BMP180;54931;52.098;21.006;2023-03-03T15:27:01;100358.80;;;-1.28
68127;BMP180;54931;52.098;21.006;2023-03-03T15:29:49;100347.20;;;-1.30
68127;BMP180;54931;52.098;21.006;2023-03-03T15:32:35;100353.00;;;-1.30
68127;BMP180;54931;52.098;21.006;2023-03-03T15:38:19;100363.00;;;-1.30
68127;BMP180;54931;52.098;21.006;2023-03-03T15:41:18;100355.80;;;-1.30
68127;BMP180;54931;52.098;21.006;2023-03-03T15:44:05;100352.80;;;-1.26
68127;BMP180;54931;52.098;21.006;2023-03-03T15:47:03;100356.20;;;-1.20
68127;BMP180;54931;52.098;21.006;2023-03-03T15:53:20;100342.20;;;-1.20
68127;BMP180;54931;52.098;21.006;2023-03-03T16:04:40;100348.40;;;-1.20
68127;BMP180;54931;52.098;21.006;2023-03-03T16:19:41;100340.00;;;-1.30
68127;BMP180;54931;52.098;21.006;2023-03-03T16:28:05;100346.20;;;-1.30
68127;BMP180;54931;52.098;21.006;2023-03-03T16:31:04;100348.40;;;-1.30
68127;BMP180;54931;52.098;21.006;2023-03-03T16:33:37;100336.80;;;-1.38
68127;BMP180;54931;52.098;21.006;2023-03-03T16:41:50;100338.80;;;-1.32
68127;BMP180;54931;52.098;21.006;2023-03-03T16:45:03;100337.80;;;-1.34
68127;BMP180;54931;52.098;21.006;2023-03-03T16:56:31;100340.40;;;-1.30
68127;BMP180;54931;52.098;21.006;2023-03-03T16:59:32;100341.00;;;-1.30
68127;BMP180;54931;52.098;21.006;2023-03-03T17:15:04;100337.60;;;-1.40
68127;BMP180;54931;52.098;21.006;2023-03-03T17:20:28;100332.20;;;-1.40
68127;BMP180;54931;52.098;21.006;2023-03-03T17:23:26;100338.40;;;-1.40
68127;BMP180;54931;52.098;21.006;2023-03-03T17:26:33;100335.60;;;-1.38
68127;BMP180;54931;52.098;21.006;2023-03-03T17:46:27;100336.80;;;-1.30
68127;BMP180;54931;52.098;21.006;2023-03-03T18:03:32;100317.20;;;-1.30
68127;BMP180;54931;52.098;21.006;2023-03-03T18:06:46;100319.00;;;-1.30
68127;BMP180;54931;52.098;21.006;2023-03-03T18:14:56;100319.60;;;-1.28
68127;BMP180;54931;52.098;21.006;2023-03-03T18:20:58;100304.80;;;-1.30
68127;BMP180;54931;52.098;21.006;2023-03-03T18:23:39;100302.20;;;-1.30
68127;BMP180;54931;52.098;21.006;2023-03-03T18:26:40;100303.00;;;-1.30
68127;BMP180;54931;52.098;21.006;2023-03-03T18:29:28;100307.80;;;-1.30
68127;BMP180;54931;52.098;21.006;2023-03-03T18:34:40;100298.20;;;-1.30
68127;BMP180;54931;52.098;21.006;2023-03-03T18:42:41;100299.20;;;-1.30
68127;BMP180;54931;52.098;21.006;2023-03-03T18:48:02;100293.80;;;-1.22
68127;BMP180;54931;52.098;21.006;2023-03-03T18:50:43;100294.60;;;-1.20
68127;BMP180;54931;52.098;21.006;2023-03-03T18:53:26;100292.80;;;-1.20
68127;BMP180;54931;52.098;21.006;2023-03-03T18:55:58;100297.20;;;-1.20
68127;BMP180;54931;52.098;21.006;2023-03-03T18:58:38;100304.00;;;-1.20
68127;BMP180;54931;52.098;21.006;2023-03-03T19:04:02;100293.40;;;-1.20
68127;BMP180;54931;52.098;21.006;2023-03-03T19:09:05;100272.00;;;-1.20
68127;BMP180;54931;52.098;21.006;2023-03-03T19:11:55;100266.60;;;-1.18
68127;BMP180;54931;52.098;21.006;2023-03-03T19:17:40;100259.20;;;-1.10
68127;BMP180;54931;52.098;21.006;2023-03-03T19:20:11;100256.60;;;-1.10
68127;BMP180;54931;52.098;21.006;2023-03-03T19:22:51;100262.00;;;-1.10
68127;BMP180;54931;52.098;21.006;2023-03-03T19:25:24;100266.40;;;-1.10
68127;BMP180;54931;52.098;21.006;2023-03-03T19:39:11;100252.00;;;-1.00
68127;BMP180;54931;52.098;21.006;2023-03-03T19:47:47;100244.60;;;-1.00
68127;BMP180;54931;52.098;21.006;2023-03-03T19:54:19;100251.80;;;-0.90
68127;BMP180;54931;52.098;21.006;2023-03-03T19:56:53;100253.00;;;-0.90
68127;BMP180;54931;52.098;21.006;2023-03-03T19:59:35;100249.20;;;-0.90
68127;BMP180;54931;52.098;21.006;2023-03-03T20:08:14;100224.00;;;-0.90
68127;BMP180;54931;52.098;21.006;2023-03-03T20:16:37;100214.80;;;-0.80